createdAt,value
2024-02-16T00:02:04.619Z,7.20
2024-02-16T00:04:32.277Z,7.50
2024-02-16T00:06:59.458Z,7.43
2024-02-16T00:09:26.464Z,7.50
2024-02-16T00:11:54.016Z,7.05
2024-02-16T00:14:21.375Z,7.35
2024-02-16T00:16:49.081Z,7.45
2024-02-16T00:19:16.345Z,7.75
2024-02-16T00:21:43.865Z,7.03
2024-02-16T00:24:11.217Z,7.20
2024-02-16T00:26:40.906Z,7.70
2024-02-16T00:29:08.215Z,6.55
2024-02-16T00:31:35.247Z,7.90
2024-02-16T00:34:02.320Z,7.55
2024-02-16T00:36:31.692Z,8.02
2024-02-16T00:38:59.648Z,7.50
2024-02-16T00:41:27.293Z,7.90
2024-02-16T00:43:54.617Z,7.55
2024-02-16T00:46:24.300Z,7.60
2024-02-16T00:48:52.925Z,7.53
2024-02-16T00:51:20.182Z,7.20
2024-02-16T00:53:47.709Z,6.43
2024-02-16T00:56:14.666Z,6.50
2024-02-16T00:58:44.007Z,6.43
2024-02-16T01:01:13.528Z,6.05
2024-02-16T01:03:41.077Z,6.68
2024-02-16T01:06:10.364Z,5.78
2024-02-16T01:08:37.416Z,6.55
2024-02-16T01:11:04.585Z,6.38
2024-02-16T01:13:31.609Z,5.97
2024-02-16T01:15:58.536Z,6.32
2024-02-16T01:18:26.147Z,5.72
2024-02-16T01:20:53.454Z,5.88
2024-02-16T01:23:21.515Z,5.93
2024-02-16T01:25:49.482Z,5.47
2024-02-16T01:28:16.326Z,5.43
2024-02-16T01:30:43.408Z,5.57
2024-02-16T01:33:10.374Z,5.45
2024-02-16T01:35:37.517Z,6.90
2024-02-16T01:38:04.499Z,6.15
2024-02-16T01:40:31.359Z,7.38
2024-02-16T01:42:58.822Z,5.63
2024-02-16T01:45:25.697Z,5.72
2024-02-16T01:47:54.892Z,6.05
2024-02-16T01:50:23.252Z,6.03
2024-02-16T01:52:51.295Z,6.63
2024-02-16T01:55:18.492Z,5.07
2024-02-16T01:57:49.559Z,5.30
2024-02-16T02:00:19.092Z,4.90
2024-02-16T02:02:47.743Z,5.68
2024-02-16T02:05:16.899Z,5.60
2024-02-16T02:07:44.552Z,5.75
2024-02-16T02:10:14.088Z,5.45
2024-02-16T02:12:41.787Z,5.45
2024-02-16T02:15:10.042Z,5.15
2024-02-16T02:17:37.122Z,6.40
2024-02-16T02:20:05.544Z,4.55
2024-02-16T02:22:32.529Z,5.35
2024-02-16T02:24:59.388Z,5.30
2024-02-16T02:27:26.397Z,5.13
2024-02-16T02:29:53.334Z,5.50
2024-02-16T02:32:20.588Z,5.10
2024-02-16T02:34:47.709Z,4.55
2024-02-16T02:37:14.691Z,4.75
2024-02-16T02:39:41.759Z,4.80
2024-02-16T02:42:09.557Z,4.95
2024-02-16T02:44:36.476Z,5.10
2024-02-16T02:47:03.593Z,4.47
2024-02-16T02:49:30.767Z,5.20
2024-02-16T02:51:57.669Z,4.70
2024-02-16T02:54:24.565Z,4.50
2024-02-16T02:56:51.529Z,5.15
2024-02-16T02:59:18.496Z,4.22
2024-02-16T03:01:45.956Z,4.65
2024-02-16T03:04:13.075Z,4.63
2024-02-16T03:06:40.080Z,4.22
2024-02-16T03:09:08.032Z,4.30
2024-02-16T03:11:35.073Z,4.20
2024-02-16T03:14:02.006Z,4.45
2024-02-16T03:16:28.841Z,4.75
2024-02-16T03:18:56.614Z,4.47
2024-02-16T03:21:23.647Z,4.47
2024-02-16T03:23:50.576Z,3.85
2024-02-16T03:26:19.988Z,3.63
2024-02-16T03:28:50.754Z,4.50
2024-02-16T03:31:23.264Z,4.05
2024-02-16T03:33:52.653Z,4.13
2024-02-16T03:36:20.973Z,4.00
2024-02-16T03:38:52.495Z,4.03
2024-02-16T03:41:22.174Z,4.10
2024-02-16T03:43:49.113Z,3.58
2024-02-16T03:46:16.082Z,3.72
2024-02-16T03:48:43.272Z,3.45
2024-02-16T03:51:10.526Z,3.60
2024-02-16T03:53:37.497Z,3.45
2024-02-16T03:56:04.660Z,3.70
2024-02-16T03:58:32.599Z,3.15
2024-02-16T04:00:59.859Z,3.30
2024-02-16T04:03:26.872Z,4.30
2024-02-16T04:05:54.389Z,3.80
2024-02-16T04:08:21.501Z,3.28
2024-02-16T04:10:48.647Z,3.50
2024-02-16T04:13:15.744Z,3.58
2024-02-16T04:15:42.843Z,3.38
2024-02-16T04:18:10.714Z,4.10
2024-02-16T04:20:39.261Z,3.58
2024-02-16T04:23:06.197Z,3.58
2024-02-16T04:25:33.142Z,3.15
2024-02-16T04:28:00.355Z,3.47
2024-02-16T04:30:27.480Z,3.25
2024-02-16T04:32:54.678Z,2.97
2024-02-16T04:35:21.718Z,2.97
2024-02-16T04:37:48.576Z,3.15
2024-02-16T04:40:16.614Z,3.25
2024-02-16T04:42:43.492Z,3.20
2024-02-16T04:45:14.781Z,3.00
2024-02-16T04:47:41.887Z,3.15
2024-02-16T04:50:12.531Z,3.40
2024-02-16T04:52:42.290Z,3.30
2024-02-16T04:55:09.347Z,3.28
2024-02-16T04:57:37.666Z,3.25
2024-02-16T05:00:05.429Z,3.20
2024-02-16T05:02:32.363Z,3.72
2024-02-16T05:05:02.264Z,3.05
2024-02-16T05:07:32.801Z,3.15
2024-02-16T05:10:00.180Z,4.50
2024-02-16T05:12:27.933Z,3.63
2024-02-16T05:14:55.473Z,3.25
2024-02-16T05:17:23.870Z,3.55
2024-02-16T05:19:51.276Z,3.55
2024-02-16T05:22:23.009Z,3.63
2024-02-16T05:24:50.090Z,3.85
2024-02-16T05:27:17.088Z,3.33
2024-02-16T05:29:43.979Z,8.43
2024-02-16T05:32:11.846Z,3.38
2024-02-16T05:34:39.151Z,4.20
2024-02-16T05:37:10.494Z,3.78
2024-02-16T05:39:54.674Z,3.50
2024-02-16T05:44:52.557Z,3.80
2024-02-16T05:47:20.552Z,3.45
2024-02-16T05:49:48.103Z,4.32
2024-02-16T05:52:24.789Z,4.13
2024-02-16T05:54:51.787Z,9.68
2024-02-16T05:57:19.630Z,18.65
2024-02-16T05:59:47.151Z,4.53
2024-02-16T06:02:15.567Z,4.38
2024-02-16T06:04:42.997Z,5.88
2024-02-16T06:07:10.161Z,3.30
2024-02-16T06:09:38.728Z,6.70
2024-02-16T06:12:08.507Z,4.55
2024-02-16T06:14:35.948Z,3.03
2024-02-16T06:17:02.961Z,3.50
2024-02-16T06:19:30.533Z,3.17
2024-02-16T06:21:57.688Z,3.30
2024-02-16T06:24:24.972Z,2.67
2024-02-16T06:26:57.553Z,3.20
2024-02-16T06:29:25.448Z,3.47
2024-02-16T06:31:53.349Z,3.17
2024-02-16T06:34:20.748Z,3.35
2024-02-16T06:36:47.960Z,3.35
2024-02-16T06:39:18.296Z,3.13
2024-02-16T06:41:49.164Z,3.63
2024-02-16T06:44:17.275Z,3.15
2024-02-16T06:46:52.498Z,4.05
2024-02-16T06:49:33.591Z,3.90
2024-02-16T06:55:21.634Z,2.38
2024-02-16T06:57:54.704Z,3.28
2024-02-16T07:00:48.417Z,3.05
2024-02-16T07:03:35.785Z,3.00
2024-02-16T07:06:04.341Z,2.88
2024-02-16T07:08:40.500Z,4.40
2024-02-16T07:11:12.758Z,12.38
2024-02-16T07:13:46.627Z,4.40
2024-02-16T07:16:23.371Z,4.30
2024-02-16T07:21:34.846Z,3.10
2024-02-16T07:24:16.651Z,3.63
2024-02-16T07:27:11.584Z,3.55
2024-02-16T07:29:42.542Z,4.20
2024-02-16T07:32:25.107Z,6.30
2024-02-16T07:35:10.282Z,2.75
2024-02-16T07:37:43.472Z,3.00
2024-02-16T07:40:10.660Z,2.92
2024-02-16T07:42:45.934Z,3.28
2024-02-16T07:45:13.300Z,3.35
2024-02-16T07:47:43.059Z,3.53
2024-02-16T07:50:11.290Z,4.80
2024-02-16T07:52:39.697Z,3.13
2024-02-16T07:55:09.972Z,3.05
2024-02-16T07:57:37.574Z,5.43
2024-02-16T08:00:08.434Z,3.90
2024-02-16T08:02:35.615Z,4.22
2024-02-16T08:05:02.644Z,4.53
2024-02-16T08:07:32.109Z,3.65
2024-02-16T08:09:59.244Z,3.67
2024-02-16T08:12:28.451Z,3.67
2024-02-16T08:14:57.260Z,3.33
2024-02-16T08:17:25.555Z,3.10
2024-02-16T08:19:56.581Z,5.70
2024-02-16T08:22:24.003Z,3.85
2024-02-16T08:24:51.380Z,3.95
2024-02-16T08:27:18.574Z,7.60
2024-02-16T08:29:46.073Z,5.65
2024-02-16T08:32:14.576Z,3.60
2024-02-16T08:34:41.708Z,3.58
2024-02-16T08:37:09.212Z,3.88
2024-02-16T08:39:39.293Z,3.67
2024-02-16T08:42:06.540Z,5.20
2024-02-16T08:44:33.580Z,3.38
2024-02-16T08:47:00.562Z,2.88
2024-02-16T08:49:28.311Z,3.45
2024-02-16T08:51:55.362Z,3.72
2024-02-16T08:54:22.333Z,3.50
2024-02-16T08:56:49.466Z,3.92
2024-02-16T08:59:16.418Z,4.13
2024-02-16T09:01:44.355Z,3.47
2024-02-16T09:04:11.701Z,3.72
2024-02-16T09:06:40.344Z,3.50
2024-02-16T09:09:13.302Z,3.10
2024-02-16T09:11:40.530Z,3.15
2024-02-16T09:14:07.477Z,2.67
2024-02-16T09:16:34.329Z,2.75
2024-02-16T09:19:01.504Z,2.80
2024-02-16T09:21:30.936Z,2.55
2024-02-16T09:24:02.804Z,2.40
2024-02-16T09:26:34.831Z,2.55
2024-02-16T09:29:02.242Z,2.80
2024-02-16T09:31:29.714Z,3.85
2024-02-16T09:33:56.749Z,3.60
2024-02-16T09:36:24.546Z,3.63
2024-02-16T09:38:52.094Z,5.22
2024-02-16T09:41:19.941Z,3.22
2024-02-16T09:43:46.968Z,4.18
2024-02-16T09:46:15.826Z,3.72
2024-02-16T09:48:49.637Z,2.80
2024-02-16T09:51:17.474Z,3.13
2024-02-16T09:53:44.490Z,3.22
2024-02-16T09:56:11.429Z,3.80
2024-02-16T09:58:38.364Z,3.30
2024-02-16T10:01:05.616Z,3.65
2024-02-16T10:03:36.330Z,3.75
2024-02-16T10:06:09.025Z,3.33
2024-02-16T10:08:48.325Z,3.30
2024-02-16T10:11:16.288Z,2.88
2024-02-16T10:13:43.220Z,2.70
2024-02-16T10:16:13.388Z,2.95
2024-02-16T10:18:40.577Z,2.95
2024-02-16T10:21:08.883Z,3.90
2024-02-16T10:23:43.550Z,4.28
2024-02-16T10:26:11.256Z,3.97
2024-02-16T10:28:39.065Z,4.72
2024-02-16T10:31:06.796Z,11.48
2024-02-16T10:33:35.192Z,13.05
2024-02-16T10:36:04.529Z,4.15
2024-02-16T10:38:32.275Z,8.15
2024-02-16T10:41:02.612Z,8.93
2024-02-16T10:43:31.350Z,9.45
2024-02-16T10:45:58.374Z,12.50
2024-02-16T10:48:25.488Z,8.85
2024-02-16T10:50:54.174Z,10.98
2024-02-16T10:53:26.683Z,7.07
2024-02-16T10:55:53.698Z,7.93
2024-02-16T10:58:21.514Z,4.25
2024-02-16T11:00:56.287Z,5.30
2024-02-16T11:03:25.802Z,7.22
2024-02-16T11:05:54.346Z,5.43
2024-02-16T11:08:29.576Z,14.70
2024-02-16T11:11:02.061Z,24.27
2024-02-16T11:13:33.135Z,14.10
2024-02-16T11:16:02.184Z,10.30
2024-02-16T11:18:33.428Z,4.72
2024-02-16T11:21:05.034Z,5.57
2024-02-16T11:23:32.970Z,9.27
2024-02-16T11:26:10.226Z,5.25
2024-02-16T11:28:37.189Z,3.85
2024-02-16T11:31:04.993Z,5.93
2024-02-16T11:33:32.772Z,5.93
2024-02-16T11:36:01.613Z,4.18
2024-02-16T11:38:28.786Z,4.15
2024-02-16T11:41:00.718Z,3.67
2024-02-16T11:43:27.855Z,3.38
2024-02-16T11:45:55.017Z,3.88
2024-02-16T11:48:29.383Z,4.75
2024-02-16T11:51:04.808Z,4.15
2024-02-16T11:53:32.453Z,11.10
2024-02-16T11:55:59.607Z,3.58
2024-02-16T11:58:27.225Z,4.07
2024-02-16T12:00:54.454Z,6.72
2024-02-16T12:03:26.910Z,11.52
2024-02-16T12:05:57.715Z,7.85
2024-02-16T12:08:25.658Z,6.15
2024-02-16T12:10:53.333Z,3.83
2024-02-16T12:13:21.714Z,3.33
2024-02-16T12:15:53.148Z,3.60
2024-02-16T12:18:27.195Z,3.22
2024-02-16T12:21:07.027Z,4.90
2024-02-16T12:23:34.893Z,3.53
2024-02-16T12:26:02.920Z,3.63
2024-02-16T12:28:34.083Z,3.35
2024-02-16T12:31:04.095Z,3.00
2024-02-16T12:33:31.751Z,4.05
2024-02-16T12:35:58.911Z,3.75
2024-02-16T12:38:25.879Z,5.25
2024-02-16T12:40:53.055Z,3.28
2024-02-16T12:43:21.369Z,3.55
2024-02-16T12:45:48.589Z,4.40
2024-02-16T12:48:16.306Z,4.30
2024-02-16T12:50:43.535Z,3.67
2024-02-16T12:53:13.646Z,6.40
2024-02-16T12:55:40.611Z,3.53
2024-02-16T12:58:07.680Z,3.92
2024-02-16T13:00:34.894Z,3.58
2024-02-16T13:03:01.831Z,3.75
2024-02-16T13:05:29.062Z,4.03
2024-02-16T13:07:56.127Z,4.82
2024-02-16T13:10:23.251Z,4.05
2024-02-16T13:12:50.238Z,3.22
2024-02-16T13:15:26.695Z,3.55
2024-02-16T13:20:23.721Z,3.40
2024-02-16T13:22:50.843Z,3.83
2024-02-16T13:25:17.947Z,3.70
2024-02-16T13:27:44.947Z,3.60
2024-02-16T13:30:12.357Z,2.90
2024-02-16T13:32:41.549Z,3.55
2024-02-16T13:35:09.472Z,3.58
2024-02-16T13:37:36.603Z,3.60
2024-02-16T13:40:08.080Z,3.13
2024-02-16T13:42:35.283Z,3.35
2024-02-16T13:45:02.548Z,3.58
2024-02-16T13:47:29.533Z,3.50
2024-02-16T13:49:58.281Z,4.00
2024-02-16T13:52:25.889Z,4.93
2024-02-16T13:54:52.957Z,5.47
2024-02-16T13:57:20.552Z,5.38
2024-02-16T13:59:47.820Z,7.72
2024-02-16T14:02:14.907Z,6.97
2024-02-16T14:04:42.607Z,5.25
2024-02-16T14:07:11.278Z,4.82
2024-02-16T14:09:38.586Z,4.85
2024-02-16T14:12:05.919Z,7.38
2024-02-16T14:14:37.839Z,13.70
2024-02-16T14:17:06.273Z,7.60
2024-02-16T14:19:35.398Z,3.42
2024-02-16T14:22:02.804Z,4.47
2024-02-16T14:24:29.885Z,5.05
2024-02-16T14:26:56.927Z,4.65
2024-02-16T14:29:23.998Z,4.70
2024-02-16T14:31:51.007Z,6.82
2024-02-16T14:34:18.328Z,9.88
2024-02-16T14:36:45.547Z,5.13
2024-02-16T14:39:13.306Z,8.00
2024-02-16T14:41:40.561Z,6.85
2024-02-16T14:44:07.584Z,5.30
2024-02-16T14:46:35.523Z,4.72
2024-02-16T14:49:03.278Z,4.35
2024-02-16T14:51:30.671Z,5.45
2024-02-16T14:53:57.551Z,5.20
2024-02-16T14:56:24.996Z,6.30
2024-02-16T14:58:52.242Z,6.97
2024-02-16T15:01:19.418Z,6.18
2024-02-16T15:03:46.563Z,5.50
2024-02-16T15:06:13.667Z,4.82
2024-02-16T15:08:40.626Z,5.97
2024-02-16T15:11:07.545Z,6.75
2024-02-16T15:13:36.459Z,6.72
2024-02-16T15:16:03.379Z,5.50
2024-02-16T15:18:30.545Z,8.05
2024-02-16T15:20:57.661Z,7.85
2024-02-16T15:23:24.887Z,8.10
2024-02-16T15:25:51.726Z,7.50
2024-02-16T15:28:18.891Z,6.70
2024-02-16T15:30:46.008Z,5.03
2024-02-16T15:33:12.995Z,5.40
2024-02-16T15:35:39.910Z,4.28
2024-02-16T15:38:07.373Z,5.07
2024-02-16T15:40:34.321Z,6.65
2024-02-16T15:43:02.969Z,7.13
2024-02-16T15:45:30.248Z,6.90
2024-02-16T15:47:57.233Z,23.60
2024-02-16T15:50:27.157Z,14.63
2024-02-16T15:52:54.389Z,12.93
2024-02-16T15:55:21.443Z,18.00
2024-02-16T15:57:48.384Z,6.35
2024-02-16T16:00:16.126Z,6.25
2024-02-16T16:02:43.021Z,6.45
2024-02-16T16:05:10.355Z,5.53
2024-02-16T16:07:37.245Z,5.40
2024-02-16T16:10:04.429Z,5.78
2024-02-16T16:12:31.442Z,7.97
2024-02-16T16:14:58.380Z,5.15
2024-02-16T16:17:25.402Z,6.80
2024-02-16T16:19:52.386Z,7.25
2024-02-16T16:22:19.335Z,6.57
2024-02-16T16:24:46.298Z,4.90
2024-02-16T16:27:13.788Z,5.15
2024-02-16T16:29:40.735Z,5.68
2024-02-16T16:32:07.798Z,5.28
2024-02-16T16:34:34.787Z,6.53
2024-02-16T16:37:01.895Z,6.25
2024-02-16T16:39:28.798Z,5.82
2024-02-16T16:41:56.156Z,5.30
2024-02-16T16:44:23.937Z,5.93
2024-02-16T16:46:50.974Z,5.47
2024-02-16T16:49:17.946Z,4.72
2024-02-16T16:51:44.983Z,5.28
2024-02-16T16:54:11.989Z,6.70
2024-02-16T16:56:39.230Z,5.43
2024-02-16T16:59:06.251Z,5.88
2024-02-16T17:01:33.322Z,6.82
2024-02-16T17:04:01.281Z,5.50
2024-02-16T17:06:29.052Z,6.05
2024-02-16T17:08:57.841Z,6.47
2024-02-16T17:11:24.866Z,6.28
2024-02-16T17:13:51.881Z,7.10
2024-02-16T17:16:18.762Z,5.70
2024-02-16T17:18:45.776Z,6.32
2024-02-16T17:21:13.894Z,6.60
2024-02-16T17:23:41.607Z,6.65
2024-02-16T17:26:08.530Z,7.75
2024-02-16T17:28:37.945Z,5.55
2024-02-16T17:31:04.941Z,6.00
2024-02-16T17:33:32.414Z,6.22
2024-02-16T17:35:59.517Z,7.25
2024-02-16T17:38:26.460Z,8.35
2024-02-16T17:40:53.365Z,6.53
2024-02-16T17:43:20.212Z,6.90
2024-02-16T17:45:47.266Z,5.53
2024-02-16T17:48:14.409Z,6.22
2024-02-16T17:50:41.817Z,5.68
2024-02-16T17:53:08.771Z,6.15
2024-02-16T17:55:35.653Z,8.43
2024-02-16T17:58:03.847Z,6.97
2024-02-16T18:00:31.232Z,7.15
2024-02-16T18:02:58.243Z,5.28
2024-02-16T18:05:25.266Z,5.82
2024-02-16T18:07:52.864Z,5.55
2024-02-16T18:10:21.881Z,6.35
2024-02-16T18:12:50.121Z,6.05
2024-02-16T18:15:17.967Z,5.82
2024-02-16T18:17:44.920Z,6.13
2024-02-16T18:20:13.689Z,8.15
2024-02-16T18:22:41.575Z,5.88
2024-02-16T18:25:09.030Z,7.68
2024-02-16T18:27:36.079Z,7.28
2024-02-16T18:30:03.174Z,6.68
2024-02-16T18:32:30.496Z,6.80
2024-02-16T18:34:57.765Z,8.85
2024-02-16T18:37:24.695Z,6.25
2024-02-16T18:39:51.683Z,7.03
2024-02-16T18:42:18.688Z,7.53
2024-02-16T18:44:45.717Z,7.43
2024-02-16T18:47:12.626Z,6.85
2024-02-16T18:49:39.627Z,9.32
2024-02-16T18:52:06.688Z,7.80
2024-02-16T18:54:33.699Z,6.90
2024-02-16T18:57:00.721Z,7.50
2024-02-16T18:59:27.677Z,8.00
2024-02-16T19:02:02.157Z,7.78
2024-02-16T19:04:32.189Z,7.82
2024-02-16T19:06:59.329Z,6.68
2024-02-16T19:09:26.452Z,7.57
2024-02-16T19:11:53.349Z,6.50
2024-02-16T19:14:21.182Z,7.53
2024-02-16T19:16:48.042Z,7.97
2024-02-16T19:19:15.666Z,8.25
2024-02-16T19:21:44.070Z,8.07
2024-02-16T19:24:11.387Z,8.10
2024-02-16T19:26:38.412Z,7.13
2024-02-16T19:29:05.303Z,8.38
2024-02-16T19:31:34.438Z,8.60
2024-02-16T19:34:02.227Z,7.25
2024-02-16T19:36:29.766Z,8.13
2024-02-16T19:38:59.537Z,7.28
2024-02-16T19:41:26.431Z,9.55
2024-02-16T19:43:53.476Z,9.43
2024-02-16T19:46:20.659Z,7.88
2024-02-16T19:48:48.352Z,7.40
2024-02-16T19:51:15.523Z,7.40
2024-02-16T19:53:42.425Z,7.50
2024-02-16T19:56:09.372Z,7.13
2024-02-16T19:58:36.289Z,6.63
2024-02-16T20:01:03.726Z,7.43
2024-02-16T20:03:30.780Z,7.05
2024-02-16T20:05:57.998Z,6.93
2024-02-16T20:08:24.964Z,7.00
2024-02-16T20:10:52.861Z,7.82
2024-02-16T20:13:19.862Z,8.85
2024-02-16T20:15:46.881Z,8.45
2024-02-16T20:18:18.928Z,6.85
2024-02-16T20:20:47.183Z,7.35
2024-02-16T20:23:14.222Z,6.80
2024-02-16T20:25:41.088Z,8.23
2024-02-16T20:28:08.010Z,8.35
2024-02-16T20:30:35.217Z,8.82
2024-02-16T20:33:06.307Z,8.32
2024-02-16T20:35:33.248Z,7.95
2024-02-16T20:38:00.957Z,10.35
2024-02-16T20:40:28.269Z,8.18
2024-02-16T20:42:55.190Z,8.80
2024-02-16T20:45:22.149Z,8.82
2024-02-16T20:47:49.096Z,8.63
2024-02-16T20:50:17.662Z,8.27
2024-02-16T20:52:45.457Z,8.18
2024-02-16T20:55:12.491Z,8.95
2024-02-16T20:57:39.513Z,8.15
2024-02-16T21:00:12.800Z,7.82
2024-02-16T21:02:40.018Z,7.90
2024-02-16T21:05:07.472Z,8.23
2024-02-16T21:07:34.412Z,9.40
2024-02-16T21:10:01.269Z,11.80
2024-02-16T21:12:29.816Z,9.27
2024-02-16T21:14:56.890Z,9.00
2024-02-16T21:17:23.765Z,9.18
2024-02-16T21:19:50.724Z,9.18
2024-02-16T21:22:17.643Z,9.60
2024-02-16T21:24:44.614Z,9.20
2024-02-16T21:27:11.541Z,9.20
2024-02-16T21:29:41.321Z,9.18
2024-02-16T21:32:08.263Z,8.70
2024-02-16T21:34:35.306Z,9.10
2024-02-16T21:37:05.077Z,9.23
2024-02-16T21:39:32.270Z,10.02
2024-02-16T21:41:59.275Z,9.57
2024-02-16T21:44:26.763Z,9.80
2024-02-16T21:46:53.677Z,9.77
2024-02-16T21:49:22.507Z,9.45
2024-02-16T21:51:49.652Z,9.07
2024-02-16T21:54:16.679Z,9.05
2024-02-16T21:56:43.601Z,10.02
2024-02-16T21:59:10.800Z,8.65
2024-02-16T22:01:37.990Z,9.57
2024-02-16T22:04:05.121Z,8.38
2024-02-16T22:06:32.237Z,8.75
2024-02-16T22:08:59.460Z,8.70
2024-02-16T22:11:27.737Z,9.18
2024-02-16T22:13:55.047Z,9.55
2024-02-16T22:16:22.195Z,9.80
2024-02-16T22:18:50.638Z,9.10
2024-02-16T22:21:20.140Z,8.93
2024-02-16T22:23:52.384Z,8.98
2024-02-16T22:26:19.225Z,8.35
2024-02-16T22:28:46.063Z,8.25
2024-02-16T22:31:12.959Z,9.02
2024-02-16T22:33:39.921Z,9.00
2024-02-16T22:36:07.460Z,8.90
2024-02-16T22:38:34.620Z,9.07
2024-02-16T22:41:01.893Z,10.02
2024-02-16T22:43:29.297Z,9.05
2024-02-16T22:45:57.062Z,9.00
2024-02-16T22:48:24.437Z,8.68
2024-02-16T22:50:51.577Z,9.27
2024-02-16T22:53:18.621Z,9.23
2024-02-16T22:55:47.549Z,8.98
2024-02-16T22:58:14.623Z,9.15
2024-02-16T23:00:42.534Z,9.25
2024-02-16T23:03:11.914Z,9.55
2024-02-16T23:05:39.842Z,9.25
2024-02-16T23:08:08.364Z,8.75
2024-02-16T23:10:36.873Z,9.23
2024-02-16T23:13:04.244Z,9.40
2024-02-16T23:15:34.661Z,9.05
2024-02-16T23:18:03.381Z,8.90
2024-02-16T23:20:31.610Z,9.18
2024-02-16T23:23:16.237Z,8.55
2024-02-16T23:25:44.559Z,9.45
2024-02-16T23:28:16.434Z,9.48
2024-02-16T23:30:44.431Z,10.95
2024-02-16T23:33:12.549Z,10.57
2024-02-16T23:35:40.216Z,8.93
2024-02-16T23:38:07.168Z,9.45
2024-02-16T23:40:34.058Z,9.95
2024-02-16T23:43:00.943Z,10.02
2024-02-16T23:45:33.916Z,9.20
2024-02-16T23:48:01.187Z,9.32
2024-02-16T23:50:31.028Z,9.43
2024-02-16T23:52:58.809Z,10.02
2024-02-16T23:55:25.984Z,8.55
2024-02-16T23:57:55.893Z,12.15
